createdAt,value
2018-11-13T00:04:16.867Z,92.63
2018-11-13T00:14:16.957Z,92.62
2018-11-13T00:24:17.750Z,92.51
2018-11-13T00:34:22.657Z,92.71
2018-11-13T00:44:23.894Z,92.75
2018-11-13T00:54:36.258Z,92.65
2018-11-13T01:04:38.857Z,92.84
2018-11-13T01:14:44.000Z,92.76
2018-11-13T01:24:44.510Z,92.77
2018-11-13T01:34:44.662Z,93.13
2018-11-13T01:44:48.989Z,93.31
2018-11-13T01:54:49.406Z,93.14
2018-11-13T02:04:49.617Z,92.97
2018-11-13T02:14:49.670Z,93.31
2018-11-13T02:24:50.131Z,93.45
2018-11-13T02:34:50.219Z,93.94
2018-11-13T02:44:51.281Z,94.49
2018-11-13T02:54:51.371Z,95.01
2018-11-13T03:04:51.405Z,95.18
2018-11-13T03:14:51.576Z,95.58
2018-11-13T03:24:51.739Z,95.80
2018-11-13T03:34:51.839Z,95.86
2018-11-13T03:44:51.891Z,95.83
2018-11-13T03:54:51.940Z,95.87
2018-11-13T04:04:52.132Z,95.80
2018-11-13T04:14:53.018Z,95.97
2018-11-13T04:24:53.199Z,95.63
2018-11-13T04:34:53.341Z,95.77
2018-11-13T04:44:54.024Z,95.75
2018-11-13T04:54:54.211Z,95.55
2018-11-13T05:04:54.866Z,95.97
2018-11-13T05:14:55.960Z,95.98
2018-11-13T05:24:56.294Z,95.61
2018-11-13T05:34:56.426Z,95.37
2018-11-13T05:44:56.720Z,95.03
2018-11-13T05:54:56.846Z,95.17
2018-11-13T06:04:57.039Z,95.73
2018-11-13T06:14:57.595Z,96.01
2018-11-13T06:24:57.782Z,95.96
2018-11-13T06:34:57.981Z,95.55
2018-11-13T06:44:58.051Z,94.89
2018-11-13T06:55:06.412Z,94.04
2018-11-13T07:05:13.848Z,93.73
2018-11-13T07:15:15.316Z,93.23
2018-11-13T07:25:15.682Z,92.72
2018-11-13T07:35:20.015Z,92.67
2018-11-13T07:45:22.089Z,92.18
2018-11-13T07:55:32.341Z,91.62
2018-11-13T08:05:36.943Z,91.74
2018-11-13T08:15:37.457Z,90.94
2018-11-13T08:25:54.909Z,90.42
2018-11-13T08:35:57.803Z,89.05
2018-11-13T08:45:59.465Z,88.01
2018-11-13T08:55:59.548Z,88.25
2018-11-13T09:06:06.998Z,87.50
2018-11-13T09:16:07.187Z,86.68
2018-11-13T09:26:08.550Z,86.44
2018-11-13T09:36:08.597Z,82.20
2018-11-13T09:46:27.317Z,75.94
2018-11-13T09:56:46.415Z,67.10
2018-11-13T10:07:05.395Z,65.63
2018-11-13T10:17:24.244Z,66.14
2018-11-13T10:27:43.092Z,64.92
2018-11-13T10:38:01.378Z,58.08
2018-11-13T10:48:20.138Z,60.51
2018-11-13T10:58:39.085Z,63.79
2018-11-13T11:08:58.017Z,64.21
2018-11-13T11:19:16.683Z,60.67
2018-11-13T11:29:36.246Z,58.09
2018-11-13T11:39:56.160Z,54.30
2018-11-13T11:50:19.318Z,54.96
2018-11-13T12:00:39.725Z,50.90
2018-11-13T12:11:01.098Z,51.75
2018-11-13T12:21:22.118Z,54.30
2018-11-13T12:31:40.686Z,54.90
2018-11-13T12:42:02.447Z,55.19
2018-11-13T12:52:21.334Z,56.56
2018-11-13T13:02:46.762Z,60.67
2018-11-13T13:13:05.593Z,61.10
2018-11-13T13:23:26.326Z,62.43
2018-11-13T13:33:47.305Z,64.42
2018-11-13T13:44:08.018Z,65.97
2018-11-13T13:54:27.181Z,66.23
2018-11-13T14:04:47.773Z,68.78
2018-11-13T14:15:08.314Z,68.86
2018-11-13T14:25:27.751Z,68.92
2018-11-13T14:35:46.811Z,69.54
2018-11-13T14:46:05.540Z,70.54
2018-11-13T14:56:24.344Z,71.37
2018-11-13T15:06:43.102Z,71.95
2018-11-13T15:17:02.105Z,72.46
2018-11-13T15:27:20.768Z,73.00
2018-11-13T15:37:40.057Z,73.53
2018-11-13T15:48:00.079Z,73.89
2018-11-13T15:58:18.706Z,74.07
2018-11-13T16:08:37.406Z,74.64
2018-11-13T16:18:56.400Z,75.79
2018-11-13T16:29:15.157Z,76.42
2018-11-13T16:39:34.203Z,73.72
2018-11-13T16:49:53.075Z,72.15
2018-11-13T17:00:11.826Z,72.32
2018-11-13T17:10:30.952Z,72.95
2018-11-13T17:20:49.826Z,73.30
2018-11-13T17:31:08.600Z,75.34
2018-11-13T17:41:27.398Z,77.56
2018-11-13T17:51:46.354Z,79.27
2018-11-13T18:02:05.452Z,80.05
2018-11-13T18:12:25.404Z,81.15
2018-11-13T18:22:44.297Z,81.42
2018-11-13T18:33:03.850Z,81.65
2018-11-13T18:43:22.768Z,80.96
2018-11-13T18:53:41.741Z,80.13
2018-11-13T19:04:00.815Z,79.71
2018-11-13T19:14:20.489Z,80.84
2018-11-13T19:24:39.337Z,81.72
2018-11-13T19:35:01.397Z,82.01
2018-11-13T19:45:23.091Z,81.12
2018-11-13T19:55:41.768Z,79.68
2018-11-13T20:06:03.036Z,80.74
2018-11-13T20:16:03.489Z,81.24
2018-11-13T20:26:03.589Z,81.45
2018-11-13T20:36:03.658Z,81.98
2018-11-13T20:46:03.870Z,81.80
2018-11-13T20:56:04.245Z,81.91
2018-11-13T21:06:04.510Z,81.58
2018-11-13T21:16:04.668Z,81.64
2018-11-13T21:26:23.991Z,81.47
2018-11-13T21:36:42.695Z,80.47
2018-11-13T21:47:01.345Z,80.06
2018-11-13T21:57:21.220Z,79.00
2018-11-13T22:07:39.745Z,79.38
2018-11-13T22:17:59.384Z,78.05
2018-11-13T22:28:18.842Z,77.56
2018-11-13T22:38:37.434Z,77.05
2018-11-13T22:48:56.287Z,76.62
2018-11-13T22:59:14.979Z,76.82
2018-11-13T23:09:33.641Z,76.45
2018-11-13T23:19:52.394Z,76.79
2018-11-13T23:30:18.719Z,76.30
2018-11-13T23:40:37.419Z,76.74
2018-11-13T23:50:56.132Z,77.06
